sensor_id;sensor_type;location;lat;lon;timestamp;P1;durP1;ratioP1;P2;durP2;ratioP2
56271;SDS011;42177;48.914;18.160;2024-03-25T00:01:14;3.3;;;2.8;;
56271;SDS011;42177;48.914;18.160;2024-03-25T00:06:14;3.3;;;2.8;;
56271;SDS011;42177;48.914;18.160;2024-03-25T00:11:14;2.3;;;1.9;;
56271;SDS011;42177;48.914;18.160;2024-03-25T00:16:14;2.3;;;1.9;;
56271;SDS011;42177;48.914;18.160;2024-03-25T00:21:14;2.4;;;2;;
56271;SDS011;42177;48.914;18.160;2024-03-25T00:26:14;2.4;;;2;;
56271;SDS011;42177;48.914;18.160;2024-03-25T00:31:14;1.9;;;1.6;;
56271;SDS011;42177;48.914;18.160;2024-03-25T00:36:14;1.9;;;1.6;;
56271;SDS011;42177;48.914;18.160;2024-03-25T00:41:14;2.4;;;2;;
56271;SDS011;42177;48.914;18.160;2024-03-25T00:46:14;2.4;;;2;;
56271;SDS011;42177;48.914;18.160;2024-03-25T00:51:14;2.3;;;1.7;;
56271;SDS011;42177;48.914;18.160;2024-03-25T00:56:14;2.3;;;1.7;;
56271;SDS011;42177;48.914;18.160;2024-03-25T01:01:14;2.2;;;1.9;;
56271;SDS011;42177;48.914;18.160;2024-03-25T01:06:14;2.2;;;1.9;;
56271;SDS011;42177;48.914;18.160;2024-03-25T01:11:14;1.9;;;1.7;;
56271;SDS011;42177;48.914;18.160;2024-03-25T01:16:14;1.9;;;1.7;;
56271;SDS011;42177;48.914;18.160;2024-03-25T01:21:14;3.3;;;2.1;;
56271;SDS011;42177;48.914;18.160;2024-03-25T01:26:14;3.3;;;2.1;;
56271;SDS011;42177;48.914;18.160;2024-03-25T01:31:14;3.7;;;2.1;;
56271;SDS011;42177;48.914;18.160;2024-03-25T01:36:14;3.7;;;2.1;;
56271;SDS011;42177;48.914;18.160;2024-03-25T01:41:14;2.6;;;2.1;;
56271;SDS011;42177;48.914;18.160;2024-03-25T01:46:14;2.6;;;2.1;;
56271;SDS011;42177;48.914;18.160;2024-03-25T01:51:14;1.8;;;1.5;;
56271;SDS011;42177;48.914;18.160;2024-03-25T01:56:14;1.8;;;1.5;;
56271;SDS011;42177;48.914;18.160;2024-03-25T02:01:14;2.2;;;1.6;;
56271;SDS011;42177;48.914;18.160;2024-03-25T02:06:15;2.2;;;1.6;;
56271;SDS011;42177;48.914;18.160;2024-03-25T02:11:14;2;;;1.4;;
56271;SDS011;42177;48.914;18.160;2024-03-25T02:16:14;2;;;1.4;;
56271;SDS011;42177;48.914;18.160;2024-03-25T02:21:14;1.6;;;1.5;;
56271;SDS011;42177;48.914;18.160;2024-03-25T02:26:14;1.6;;;1.5;;
56271;SDS011;42177;48.914;18.160;2024-03-25T02:31:14;2.1;;;1.5;;
56271;SDS011;42177;48.914;18.160;2024-03-25T02:36:14;2.1;;;1.5;;
56271;SDS011;42177;48.914;18.160;2024-03-25T02:41:14;2;;;1.7;;
56271;SDS011;42177;48.914;18.160;2024-03-25T02:46:14;2;;;1.7;;
56271;SDS011;42177;48.914;18.160;2024-03-25T02:51:14;1.8;;;1.5;;
56271;SDS011;42177;48.914;18.160;2024-03-25T02:56:14;1.8;;;1.5;;
56271;SDS011;42177;48.914;18.160;2024-03-25T03:01:15;2.2;;;2;;
56271;SDS011;42177;48.914;18.160;2024-03-25T03:06:14;2.2;;;2;;
56271;SDS011;42177;48.914;18.160;2024-03-25T03:11:14;2.2;;;1.8;;
56271;SDS011;42177;48.914;18.160;2024-03-25T03:16:14;2.2;;;1.8;;
56271;SDS011;42177;48.914;18.160;2024-03-25T03:21:14;2.2;;;1.7;;
56271;SDS011;42177;48.914;18.160;2024-03-25T03:26:14;2.2;;;1.7;;
56271;SDS011;42177;48.914;18.160;2024-03-25T03:31:14;2.6;;;1.7;;
56271;SDS011;42177;48.914;18.160;2024-03-25T03:36:14;2.6;;;1.7;;
56271;SDS011;42177;48.914;18.160;2024-03-25T03:41:14;2.6;;;1.7;;
56271;SDS011;42177;48.914;18.160;2024-03-25T03:46:14;2.6;;;1.7;;
56271;SDS011;42177;48.914;18.160;2024-03-25T03:51:14;2.3;;;1.9;;
56271;SDS011;42177;48.914;18.160;2024-03-25T03:56:14;2.3;;;1.9;;
56271;SDS011;42177;48.914;18.160;2024-03-25T04:01:14;1.7;;;1.6;;
56271;SDS011;42177;48.914;18.160;2024-03-25T04:06:14;1.7;;;1.6;;
56271;SDS011;42177;48.914;18.160;2024-03-25T04:11:14;2.1;;;1.7;;
56271;SDS011;42177;48.914;18.160;2024-03-25T04:16:14;2.1;;;1.7;;
56271;SDS011;42177;48.914;18.160;2024-03-25T04:21:14;1.7;;;1.6;;
56271;SDS011;42177;48.914;18.160;2024-03-25T04:26:14;1.7;;;1.6;;
56271;SDS011;42177;48.914;18.160;2024-03-25T04:31:14;1.8;;;1.5;;
56271;SDS011;42177;48.914;18.160;2024-03-25T04:36:14;1.8;;;1.5;;
56271;SDS011;42177;48.914;18.160;2024-03-25T04:41:14;2.4;;;1.8;;
56271;SDS011;42177;48.914;18.160;2024-03-25T04:46:14;2.4;;;1.8;;
56271;SDS011;42177;48.914;18.160;2024-03-25T04:51:14;2;;;1.8;;
56271;SDS011;42177;48.914;18.160;2024-03-25T04:56:14;2;;;1.8;;
56271;SDS011;42177;48.914;18.160;2024-03-25T05:01:14;2.4;;;2.1;;
56271;SDS011;42177;48.914;18.160;2024-03-25T05:06:14;2.4;;;2.1;;
56271;SDS011;42177;48.914;18.160;2024-03-25T05:11:14;2.5;;;2.3;;
56271;SDS011;42177;48.914;18.160;2024-03-25T05:16:14;2.5;;;2.3;;
56271;SDS011;42177;48.914;18.160;2024-03-25T05:21:14;2.6;;;2.1;;
56271;SDS011;42177;48.914;18.160;2024-03-25T05:26:14;2.6;;;2.1;;
56271;SDS011;42177;48.914;18.160;2024-03-25T05:31:14;3.2;;;2.5;;
56271;SDS011;42177;48.914;18.160;2024-03-25T05:36:14;3.2;;;2.5;;
56271;SDS011;42177;48.914;18.160;2024-03-25T05:41:14;2.6;;;2.1;;
56271;SDS011;42177;48.914;18.160;2024-03-25T05:46:14;2.6;;;2.1;;
56271;SDS011;42177;48.914;18.160;2024-03-25T05:51:14;3.2;;;2.1;;
56271;SDS011;42177;48.914;18.160;2024-03-25T05:56:14;3.2;;;2.1;;
56271;SDS011;42177;48.914;18.160;2024-03-25T06:01:14;2.8;;;1.8;;
56271;SDS011;42177;48.914;18.160;2024-03-25T06:06:14;2.8;;;1.8;;
56271;SDS011;42177;48.914;18.160;2024-03-25T06:11:14;1.8;;;1.7;;
56271;SDS011;42177;48.914;18.160;2024-03-25T06:16:14;1.8;;;1.7;;
56271;SDS011;42177;48.914;18.160;2024-03-25T06:21:14;2.1;;;1.9;;
56271;SDS011;42177;48.914;18.160;2024-03-25T06:26:14;2.1;;;1.9;;
56271;SDS011;42177;48.914;18.160;2024-03-25T06:31:14;3.5;;;2.5;;
56271;SDS011;42177;48.914;18.160;2024-03-25T06:36:14;3.5;;;2.5;;
56271;SDS011;42177;48.914;18.160;2024-03-25T06:41:14;1.9;;;1.7;;
56271;SDS011;42177;48.914;18.160;2024-03-25T06:46:14;1.9;;;1.7;;
56271;SDS011;42177;48.914;18.160;2024-03-25T06:51:14;1.7;;;1.6;;
56271;SDS011;42177;48.914;18.160;2024-03-25T06:56:14;1.7;;;1.6;;
56271;SDS011;42177;48.914;18.160;2024-03-25T07:01:14;2.5;;;1.5;;
56271;SDS011;42177;48.914;18.160;2024-03-25T07:06:14;2.5;;;1.5;;
56271;SDS011;42177;48.914;18.160;2024-03-25T07:11:14;2;;;1.6;;
56271;SDS011;42177;48.914;18.160;2024-03-25T07:16:14;2;;;1.6;;
56271;SDS011;42177;48.914;18.160;2024-03-25T07:21:14;1.8;;;1.7;;
56271;SDS011;42177;48.914;18.160;2024-03-25T07:26:14;1.8;;;1.7;;
56271;SDS011;42177;48.914;18.160;2024-03-25T07:31:14;2.3;;;1.8;;
56271;SDS011;42177;48.914;18.160;2024-03-25T07:36:14;2.3;;;1.8;;
56271;SDS011;42177;48.914;18.160;2024-03-25T07:41:14;2.2;;;1.7;;
56271;SDS011;42177;48.914;18.160;2024-03-25T07:46:14;2.2;;;1.7;;
56271;SDS011;42177;48.914;18.160;2024-03-25T07:51:14;2.4;;;1.8;;
56271;SDS011;42177;48.914;18.160;2024-03-25T07:56:14;2.4;;;1.8;;
56271;SDS011;42177;48.914;18.160;2024-03-25T08:01:14;1.7;;;1.4;;
56271;SDS011;42177;48.914;18.160;2024-03-25T08:06:14;1.7;;;1.4;;
56271;SDS011;42177;48.914;18.160;2024-03-25T08:11:14;1.9;;;1.7;;
56271;SDS011;42177;48.914;18.160;2024-03-25T08:16:14;1.9;;;1.7;;
56271;SDS011;42177;48.914;18.160;2024-03-25T08:21:14;2.6;;;1.8;;
56271;SDS011;42177;48.914;18.160;2024-03-25T08:26:14;2.6;;;1.8;;
56271;SDS011;42177;48.914;18.160;2024-03-25T08:31:14;2;;;1.6;;
56271;SDS011;42177;48.914;18.160;2024-03-25T08:36:14;2;;;1.6;;
56271;SDS011;42177;48.914;18.160;2024-03-25T08:41:14;2.2;;;1.5;;
56271;SDS011;42177;48.914;18.160;2024-03-25T08:46:14;2.2;;;1.5;;
56271;SDS011;42177;48.914;18.160;2024-03-25T08:51:14;1.9;;;1.3;;
56271;SDS011;42177;48.914;18.160;2024-03-25T08:56:14;1.9;;;1.3;;
56271;SDS011;42177;48.914;18.160;2024-03-25T09:01:14;1.6;;;1.3;;
56271;SDS011;42177;48.914;18.160;2024-03-25T09:06:14;1.6;;;1.3;;
56271;SDS011;42177;48.914;18.160;2024-03-25T09:11:14;2;;;1.6;;
56271;SDS011;42177;48.914;18.160;2024-03-25T09:16:14;2;;;1.6;;
56271;SDS011;42177;48.914;18.160;2024-03-25T09:21:14;1.9;;;1.6;;
56271;SDS011;42177;48.914;18.160;2024-03-25T09:26:14;1.9;;;1.6;;
56271;SDS011;42177;48.914;18.160;2024-03-25T09:31:14;1.9;;;1.6;;
56271;SDS011;42177;48.914;18.160;2024-03-25T09:36:14;1.9;;;1.6;;
56271;SDS011;42177;48.914;18.160;2024-03-25T09:41:14;3.1;;;1.9;;
56271;SDS011;42177;48.914;18.160;2024-03-25T09:46:14;3.1;;;1.9;;
56271;SDS011;42177;48.914;18.160;2024-03-25T09:51:14;1.7;;;1.4;;
56271;SDS011;42177;48.914;18.160;2024-03-25T09:56:14;1.7;;;1.4;;
56271;SDS011;42177;48.914;18.160;2024-03-25T10:01:14;2.5;;;1.5;;
56271;SDS011;42177;48.914;18.160;2024-03-25T10:06:14;2.5;;;1.5;;
56271;SDS011;42177;48.914;18.160;2024-03-25T10:11:15;2.6;;;1.6;;
56271;SDS011;42177;48.914;18.160;2024-03-25T10:16:14;2.6;;;1.6;;
56271;SDS011;42177;48.914;18.160;2024-03-25T10:21:14;2.1;;;1.6;;
56271;SDS011;42177;48.914;18.160;2024-03-25T10:26:29;2.1;;;1.6;;
56271;SDS011;42177;48.914;18.160;2024-03-25T10:31:17;2.5;;;1.5;;
56271;SDS011;42177;48.914;18.160;2024-03-25T10:36:14;2.5;;;1.5;;
56271;SDS011;42177;48.914;18.160;2024-03-25T10:41:15;2;;;1.7;;
56271;SDS011;42177;48.914;18.160;2024-03-25T10:46:16;2;;;1.7;;
56271;SDS011;42177;48.914;18.160;2024-03-25T10:51:14;1.3;;;1;;
56271;SDS011;42177;48.914;18.160;2024-03-25T10:56:14;1.3;;;1;;
56271;SDS011;42177;48.914;18.160;2024-03-25T11:01:14;1.2;;;1.1;;
56271;SDS011;42177;48.914;18.160;2024-03-25T11:06:14;1.2;;;1.1;;
56271;SDS011;42177;48.914;18.160;2024-03-25T11:11:14;2.6;;;1.2;;
56271;SDS011;42177;48.914;18.160;2024-03-25T11:16:14;2.6;;;1.2;;
56271;SDS011;42177;48.914;18.160;2024-03-25T11:21:14;2.2;;;1.1;;
56271;SDS011;42177;48.914;18.160;2024-03-25T11:26:18;2.2;;;1.1;;
56271;SDS011;42177;48.914;18.160;2024-03-25T11:31:14;1.3;;;0.9;;
56271;SDS011;42177;48.914;18.160;2024-03-25T11:36:14;1.3;;;0.9;;
56271;SDS011;42177;48.914;18.160;2024-03-25T11:41:14;2.7;;;1.2;;
56271;SDS011;42177;48.914;18.160;2024-03-25T11:46:16;2.7;;;1.2;;
56271;SDS011;42177;48.914;18.160;2024-03-25T11:51:16;1.2;;;1.1;;
56271;SDS011;42177;48.914;18.160;2024-03-25T11:56:14;1.2;;;1.1;;
56271;SDS011;42177;48.914;18.160;2024-03-25T12:01:14;1.5;;;1;;
56271;SDS011;42177;48.914;18.160;2024-03-25T12:06:14;1.5;;;1;;
56271;SDS011;42177;48.914;18.160;2024-03-25T12:11:14;1.7;;;1.2;;
56271;SDS011;42177;48.914;18.160;2024-03-25T12:16:14;1.7;;;1.2;;
56271;SDS011;42177;48.914;18.160;2024-03-25T12:21:14;1.2;;;1;;
56271;SDS011;42177;48.914;18.160;2024-03-25T12:26:14;1.2;;;1;;
56271;SDS011;42177;48.914;18.160;2024-03-25T12:31:14;1.3;;;1;;
56271;SDS011;42177;48.914;18.160;2024-03-25T12:36:14;1.3;;;1;;
56271;SDS011;42177;48.914;18.160;2024-03-25T12:41:14;0.9;;;0.9;;
56271;SDS011;42177;48.914;18.160;2024-03-25T12:46:14;0.9;;;0.9;;
56271;SDS011;42177;48.914;18.160;2024-03-25T12:51:14;1.5;;;1.2;;
56271;SDS011;42177;48.914;18.160;2024-03-25T12:56:14;1.5;;;1.2;;
56271;SDS011;42177;48.914;18.160;2024-03-25T13:01:14;2.9;;;0.9;;
56271;SDS011;42177;48.914;18.160;2024-03-25T13:06:14;2.9;;;0.9;;
56271;SDS011;42177;48.914;18.160;2024-03-25T13:11:14;0.9;;;0.7;;
56271;SDS011;42177;48.914;18.160;2024-03-25T13:16:14;0.9;;;0.7;;
56271;SDS011;42177;48.914;18.160;2024-03-25T13:21:14;1.5;;;1;;
56271;SDS011;42177;48.914;18.160;2024-03-25T13:26:14;1.5;;;1;;
56271;SDS011;42177;48.914;18.160;2024-03-25T13:31:14;1.7;;;1;;
56271;SDS011;42177;48.914;18.160;2024-03-25T13:36:14;1.7;;;1;;
56271;SDS011;42177;48.914;18.160;2024-03-25T13:41:14;0.9;;;0.9;;
56271;SDS011;42177;48.914;18.160;2024-03-25T13:46:14;0.9;;;0.9;;
56271;SDS011;42177;48.914;18.160;2024-03-25T13:51:14;0.7;;;0.7;;
56271;SDS011;42177;48.914;18.160;2024-03-25T13:56:14;0.7;;;0.7;;
56271;SDS011;42177;48.914;18.160;2024-03-25T14:01:14;0.7;;;0.7;;
56271;SDS011;42177;48.914;18.160;2024-03-25T14:06:14;0.7;;;0.7;;
56271;SDS011;42177;48.914;18.160;2024-03-25T14:11:14;1.7;;;1.4;;
56271;SDS011;42177;48.914;18.160;2024-03-25T14:16:14;1.7;;;1.4;;
56271;SDS011;42177;48.914;18.160;2024-03-25T14:21:14;0.9;;;0.9;;
56271;SDS011;42177;48.914;18.160;2024-03-25T14:26:14;0.9;;;0.9;;
56271;SDS011;42177;48.914;18.160;2024-03-25T14:31:14;1.3;;;1.1;;
56271;SDS011;42177;48.914;18.160;2024-03-25T14:36:14;1.3;;;1.1;;
56271;SDS011;42177;48.914;18.160;2024-03-25T14:41:18;2.1;;;1.5;;
56271;SDS011;42177;48.914;18.160;2024-03-25T14:46:14;2.1;;;1.5;;
56271;SDS011;42177;48.914;18.160;2024-03-25T14:51:14;1.5;;;1.3;;
56271;SDS011;42177;48.914;18.160;2024-03-25T14:56:14;1.5;;;1.3;;
56271;SDS011;42177;48.914;18.160;2024-03-25T15:01:14;2.6;;;1.5;;
56271;SDS011;42177;48.914;18.160;2024-03-25T15:06:14;2.6;;;1.5;;
56271;SDS011;42177;48.914;18.160;2024-03-25T15:11:14;1.9;;;1.6;;
56271;SDS011;42177;48.914;18.160;2024-03-25T15:16:14;1.9;;;1.6;;
56271;SDS011;42177;48.914;18.160;2024-03-25T15:21:14;1.7;;;1.5;;
56271;SDS011;42177;48.914;18.160;2024-03-25T15:26:14;1.7;;;1.5;;
56271;SDS011;42177;48.914;18.160;2024-03-25T15:31:14;2.6;;;2;;
56271;SDS011;42177;48.914;18.160;2024-03-25T15:36:14;2.6;;;2;;
56271;SDS011;42177;48.914;18.160;2024-03-25T15:41:14;2;;;1.6;;
56271;SDS011;42177;48.914;18.160;2024-03-25T15:46:14;2;;;1.6;;
56271;SDS011;42177;48.914;18.160;2024-03-25T15:51:14;0.9;;;0.9;;
56271;SDS011;42177;48.914;18.160;2024-03-25T15:56:14;0.9;;;0.9;;
56271;SDS011;42177;48.914;18.160;2024-03-25T16:01:14;1.5;;;1.2;;
56271;SDS011;42177;48.914;18.160;2024-03-25T16:06:14;1.5;;;1.2;;
56271;SDS011;42177;48.914;18.160;2024-03-25T16:11:14;1.3;;;1.2;;
56271;SDS011;42177;48.914;18.160;2024-03-25T16:16:14;1.3;;;1.2;;
56271;SDS011;42177;48.914;18.160;2024-03-25T16:21:14;1.1;;;1.1;;
56271;SDS011;42177;48.914;18.160;2024-03-25T16:26:14;1.1;;;1.1;;
56271;SDS011;42177;48.914;18.160;2024-03-25T16:31:14;2.1;;;1.3;;
56271;SDS011;42177;48.914;18.160;2024-03-25T16:36:14;2.1;;;1.3;;
56271;SDS011;42177;48.914;18.160;2024-03-25T16:41:14;1.4;;;1.3;;
56271;SDS011;42177;48.914;18.160;2024-03-25T16:46:14;1.4;;;1.3;;
56271;SDS011;42177;48.914;18.160;2024-03-25T16:51:14;1.4;;;1.3;;
56271;SDS011;42177;48.914;18.160;2024-03-25T16:56:14;1.4;;;1.3;;
56271;SDS011;42177;48.914;18.160;2024-03-25T17:01:14;1.8;;;1.4;;
56271;SDS011;42177;48.914;18.160;2024-03-25T17:06:14;1.8;;;1.4;;
56271;SDS011;42177;48.914;18.160;2024-03-25T17:11:14;1.5;;;1.4;;
56271;SDS011;42177;48.914;18.160;2024-03-25T17:16:14;1.5;;;1.4;;
56271;SDS011;42177;48.914;18.160;2024-03-25T17:21:14;2.3;;;1.7;;
56271;SDS011;42177;48.914;18.160;2024-03-25T17:26:14;2.3;;;1.7;;
56271;SDS011;42177;48.914;18.160;2024-03-25T17:31:14;2.9;;;2;;
56271;SDS011;42177;48.914;18.160;2024-03-25T17:36:14;2.9;;;2;;
56271;SDS011;42177;48.914;18.160;2024-03-25T17:41:14;1.5;;;1.4;;
56271;SDS011;42177;48.914;18.160;2024-03-25T17:46:14;1.5;;;1.4;;
56271;SDS011;42177;48.914;18.160;2024-03-25T17:51:14;1.5;;;1.4;;
56271;SDS011;42177;48.914;18.160;2024-03-25T17:56:14;1.5;;;1.4;;
56271;SDS011;42177;48.914;18.160;2024-03-25T18:01:14;1.7;;;1.6;;
56271;SDS011;42177;48.914;18.160;2024-03-25T18:06:14;1.7;;;1.6;;
56271;SDS011;42177;48.914;18.160;2024-03-25T18:11:14;2.5;;;2.3;;
56271;SDS011;42177;48.914;18.160;2024-03-25T18:16:14;2.5;;;2.3;;
56271;SDS011;42177;48.914;18.160;2024-03-25T18:21:14;4.9;;;4.2;;
56271;SDS011;42177;48.914;18.160;2024-03-25T18:26:14;4.9;;;4.2;;
56271;SDS011;42177;48.914;18.160;2024-03-25T18:31:14;4.6;;;3.6;;
56271;SDS011;42177;48.914;18.160;2024-03-25T18:36:14;4.6;;;3.6;;
56271;SDS011;42177;48.914;18.160;2024-03-25T18:41:14;6.2;;;4.8;;
56271;SDS011;42177;48.914;18.160;2024-03-25T18:46:14;6.2;;;4.8;;
56271;SDS011;42177;48.914;18.160;2024-03-25T18:51:14;8.4;;;5.3;;
56271;SDS011;42177;48.914;18.160;2024-03-25T18:56:14;8.4;;;5.3;;
56271;SDS011;42177;48.914;18.160;2024-03-25T19:01:14;4.5;;;3.6;;
56271;SDS011;42177;48.914;18.160;2024-03-25T19:06:14;4.5;;;3.6;;
56271;SDS011;42177;48.914;18.160;2024-03-25T19:11:14;6.4;;;4.6;;
56271;SDS011;42177;48.914;18.160;2024-03-25T19:16:14;6.4;;;4.6;;
56271;SDS011;42177;48.914;18.160;2024-03-25T19:21:14;3.9;;;3.3;;
56271;SDS011;42177;48.914;18.160;2024-03-25T19:26:14;3.9;;;3.3;;
56271;SDS011;42177;48.914;18.160;2024-03-25T19:31:14;3.8;;;3.5;;
56271;SDS011;42177;48.914;18.160;2024-03-25T19:36:14;3.8;;;3.5;;
56271;SDS011;42177;48.914;18.160;2024-03-25T19:41:14;4.9;;;4.1;;
56271;SDS011;42177;48.914;18.160;2024-03-25T19:46:14;4.9;;;4.1;;
56271;SDS011;42177;48.914;18.160;2024-03-25T19:51:14;5.1;;;4.2;;
56271;SDS011;42177;48.914;18.160;2024-03-25T19:56:14;5.1;;;4.2;;
56271;SDS011;42177;48.914;18.160;2024-03-25T20:01:14;8;;;5.9;;
56271;SDS011;42177;48.914;18.160;2024-03-25T20:06:14;8;;;5.9;;
56271;SDS011;42177;48.914;18.160;2024-03-25T20:11:14;8.2;;;6.5;;
56271;SDS011;42177;48.914;18.160;2024-03-25T20:16:14;8.2;;;6.5;;
56271;SDS011;42177;48.914;18.160;2024-03-25T20:21:14;7.2;;;6.3;;
56271;SDS011;42177;48.914;18.160;2024-03-25T20:26:14;7.2;;;6.3;;
56271;SDS011;42177;48.914;18.160;2024-03-25T20:31:14;9;;;7.7;;
56271;SDS011;42177;48.914;18.160;2024-03-25T20:36:14;9;;;7.7;;
56271;SDS011;42177;48.914;18.160;2024-03-25T20:41:14;9.5;;;7.7;;
56271;SDS011;42177;48.914;18.160;2024-03-25T20:46:14;9.5;;;7.7;;
56271;SDS011;42177;48.914;18.160;2024-03-25T20:51:14;10.4;;;8.6;;
56271;SDS011;42177;48.914;18.160;2024-03-25T20:56:14;10.4;;;8.6;;
56271;SDS011;42177;48.914;18.160;2024-03-25T21:01:14;12.8;;;9.6;;
56271;SDS011;42177;48.914;18.160;2024-03-25T21:06:14;12.8;;;9.6;;
56271;SDS011;42177;48.914;18.160;2024-03-25T21:11:14;11.1;;;8.4;;
56271;SDS011;42177;48.914;18.160;2024-03-25T21:16:14;11.1;;;8.4;;
56271;SDS011;42177;48.914;18.160;2024-03-25T21:21:14;11.1;;;8.7;;
56271;SDS011;42177;48.914;18.160;2024-03-25T21:26:14;11.1;;;8.7;;
56271;SDS011;42177;48.914;18.160;2024-03-25T21:31:14;12.9;;;9.3;;
56271;SDS011;42177;48.914;18.160;2024-03-25T21:36:14;12.9;;;9.3;;
56271;SDS011;42177;48.914;18.160;2024-03-25T21:41:14;12.6;;;10.9;;
56271;SDS011;42177;48.914;18.160;2024-03-25T21:46:14;12.6;;;10.9;;
56271;SDS011;42177;48.914;18.160;2024-03-25T21:51:14;15.4;;;11.5;;
56271;SDS011;42177;48.914;18.160;2024-03-25T21:56:14;15.4;;;11.5;;
56271;SDS011;42177;48.914;18.160;2024-03-25T22:01:14;15.7;;;12.2;;
56271;SDS011;42177;48.914;18.160;2024-03-25T22:06:14;15.7;;;12.2;;
56271;SDS011;42177;48.914;18.160;2024-03-25T22:11:14;15.4;;;11.6;;
56271;SDS011;42177;48.914;18.160;2024-03-25T22:16:14;15.4;;;11.6;;
56271;SDS011;42177;48.914;18.160;2024-03-25T22:21:14;15.8;;;10.3;;
56271;SDS011;42177;48.914;18.160;2024-03-25T22:26:14;15.8;;;10.3;;
56271;SDS011;42177;48.914;18.160;2024-03-25T22:31:14;12.1;;;9.6;;
56271;SDS011;42177;48.914;18.160;2024-03-25T22:36:14;12.1;;;9.6;;
56271;SDS011;42177;48.914;18.160;2024-03-25T22:41:14;12.6;;;10.3;;
56271;SDS011;42177;48.914;18.160;2024-03-25T22:46:14;12.6;;;10.3;;
56271;SDS011;42177;48.914;18.160;2024-03-25T22:51:14;13;;;10.2;;
56271;SDS011;42177;48.914;18.160;2024-03-25T22:56:14;13;;;10.2;;
56271;SDS011;42177;48.914;18.160;2024-03-25T23:01:14;10.9;;;9;;
56271;SDS011;42177;48.914;18.160;2024-03-25T23:06:14;10.9;;;9;;
56271;SDS011;42177;48.914;18.160;2024-03-25T23:11:14;13;;;9.2;;
56271;SDS011;42177;48.914;18.160;2024-03-25T23:16:14;13;;;9.2;;
56271;SDS011;42177;48.914;18.160;2024-03-25T23:21:14;11.6;;;8.9;;
56271;SDS011;42177;48.914;18.160;2024-03-25T23:26:14;11.6;;;8.9;;
56271;SDS011;42177;48.914;18.160;2024-03-25T23:31:14;12.8;;;9.9;;
56271;SDS011;42177;48.914;18.160;2024-03-25T23:36:14;12.8;;;9.9;;
56271;SDS011;42177;48.914;18.160;2024-03-25T23:41:14;11.6;;;9.2;;
56271;SDS011;42177;48.914;18.160;2024-03-25T23:46:14;11.6;;;9.2;;
56271;SDS011;42177;48.914;18.160;2024-03-25T23:51:14;13;;;9.2;;
56271;SDS011;42177;48.914;18.160;2024-03-25T23:56:14;13;;;9.2;;
